CYIO

Pond Inlet Airport

Pond Inlet, Canada
TAF CYIO 221238Z 2213/2301 18005KT P6SM SKC RMK FCST BASED ON AUTO OBS. NXT FCST BY 221900Z
Issued Valid From Valid To
Jan-22 @ 12:38 UTC
(4 hours ago)
Jan-22 @ 13:00 UTC
(4 hours ago)
Jan-23 @ 01:00 UTC
(in 8 hours)
Jan-22 @ 13:00 to Jan-23 @ 01:00
TAF CYIO 221238Z 2213/2301 18005KT P6SM SKC RMK FCST BASED ON AUTO OBS. NXT FCST BY 221900Z
Wind Visibility Clouds
180° at 5 knots Greater than 6 miles
  • Clear skies
TAF CYIO 221238Z 2213/2301 18005KT P6SM SKC RMK FCST BASED ON AUTO OBS. NXT FCST BY 221900Z
Issued Jan-22 @ 12:38 UTC
(4 hours ago)
Valid From Jan-22 @ 13:00 UTC
(4 hours ago)
Valid To Jan-23 @ 01:00 UTC
(in 8 hours)
Jan-22 @ 13:00 - Jan-23 @ 01:00
Wind Visibility
180° at 5 knots Greater than 6 miles
Clouds
  • Clear skies